﻿<?xml version="1.0" encoding="UTF-8" standalone="no" ?>
<gpx xmlns="http://www.topografix.com/GPX/1/1" creator="CompeGPS" version="1.1" xmlns:xsi="http://www.w3.org/2001/XMLSchema-instance" xsi:schemaLocation="http://www.topografix.com/GPX/1/1 http://www.topografix.com/GPX/1/1/gpx.xsd http://www.garmin.com/xmlschemas/GpxExtensions/v3 http://www.garmin.com/xmlschemas/GpxExtensionsv3.xsd http://www.garmin.com/xmlschemas/TrackPointExtension/v1 http://www.garmin.com/xmlschemas/TrackPointExtensionv1.xsd" xmlns:gpxtpx="http://www.garmin.com/xmlschemas/TrackPointExtension/v1">
  <metadata>
    <link href="http://www.compegps.com">
      <text>CompeGPS TEAM, SL</text>
    </link>
    <time>2015-01-03T16:18:14Z</time>
    <bounds maxlat="42.865452" maxlon="1.085302" minlat="42.852184" minlon="1.057468"/>
  </metadata>
  <trk>
    <name>campuls_par_gr10</name>
    <trkseg>
      <trkpt lat="42.863759" lon="1.085302">
        <ele>1069.1</ele>
        <time>2014-12-30T12:08:39Z</time>
      </trkpt>
      <trkpt lat="42.863654" lon="1.085241">
        <ele>1069.0</ele>
        <time>2014-12-30T12:08:56Z</time>
      </trkpt>
      <trkpt lat="42.863591" lon="1.085156">
        <ele>1068.2</ele>
        <time>2014-12-30T12:09:09Z</time>
      </trkpt>
      <trkpt lat="42.863505" lon="1.085113">
        <ele>1067.6</ele>
        <time>2014-12-30T12:09:20Z</time>
      </trkpt>
      <trkpt lat="42.863461" lon="1.085000">
        <ele>1067.5</ele>
        <time>2014-12-30T12:09:32Z</time>
      </trkpt>
      <trkpt lat="42.863359" lon="1.084973">
        <ele>1067.9</ele>
        <time>2014-12-30T12:09:43Z</time>
      </trkpt>
      <trkpt lat="42.863275" lon="1.084903">
        <ele>1067.7</ele>
        <time>2014-12-30T12:09:53Z</time>
      </trkpt>
      <trkpt lat="42.863188" lon="1.084869">
        <ele>1067.4</ele>
        <time>2014-12-30T12:10:02Z</time>
      </trkpt>
      <trkpt lat="42.863100" lon="1.084813">
        <ele>1067.4</ele>
        <time>2014-12-30T12:10:12Z</time>
      </trkpt>
      <trkpt lat="42.862995" lon="1.084747">
        <ele>1067.0</ele>
        <time>2014-12-30T12:10:21Z</time>
      </trkpt>
      <trkpt lat="42.862889" lon="1.084718">
        <ele>1067.0</ele>
        <time>2014-12-30T12:10:30Z</time>
      </trkpt>
      <trkpt lat="42.862827" lon="1.084746">
        <ele>1067.6</ele>
        <time>2014-12-30T12:16:40Z</time>
      </trkpt>
      <trkpt lat="42.862751" lon="1.084777">
        <ele>1067.1</ele>
        <time>2014-12-30T12:17:15Z</time>
      </trkpt>
      <trkpt lat="42.862625" lon="1.084756">
        <ele>1067.1</ele>
        <time>2014-12-30T12:17:28Z</time>
      </trkpt>
      <trkpt lat="42.862525" lon="1.084693">
        <ele>1067.2</ele>
        <time>2014-12-30T12:17:40Z</time>
      </trkpt>
      <trkpt lat="42.862441" lon="1.084613">
        <ele>1067.1</ele>
        <time>2014-12-30T12:17:49Z</time>
      </trkpt>
      <trkpt lat="42.862400" lon="1.084489">
        <ele>1067.7</ele>
        <time>2014-12-30T12:17:58Z</time>
      </trkpt>
      <trkpt lat="42.862353" lon="1.084358">
        <ele>1067.7</ele>
        <time>2014-12-30T12:18:07Z</time>
      </trkpt>
      <trkpt lat="42.862298" lon="1.084254">
        <ele>1067.6</ele>
        <time>2014-12-30T12:18:16Z</time>
      </trkpt>
      <trkpt lat="42.862243" lon="1.084129">
        <ele>1068.3</ele>
        <time>2014-12-30T12:18:25Z</time>
      </trkpt>
      <trkpt lat="42.862209" lon="1.083976">
        <ele>1069.2</ele>
        <time>2014-12-30T12:18:34Z</time>
      </trkpt>
      <trkpt lat="42.862180" lon="1.083834">
        <ele>1070.0</ele>
        <time>2014-12-30T12:18:43Z</time>
      </trkpt>
      <trkpt lat="42.862147" lon="1.083713">
        <ele>1071.1</ele>
        <time>2014-12-30T12:18:52Z</time>
      </trkpt>
      <trkpt lat="42.862115" lon="1.083582">
        <ele>1072.2</ele>
        <time>2014-12-30T12:19:01Z</time>
      </trkpt>
      <trkpt lat="42.862083" lon="1.083454">
        <ele>1073.2</ele>
        <time>2014-12-30T12:19:09Z</time>
      </trkpt>
      <trkpt lat="42.862043" lon="1.083338">
        <ele>1074.6</ele>
        <time>2014-12-30T12:19:19Z</time>
      </trkpt>
      <trkpt lat="42.861990" lon="1.083354">
        <ele>1076.0</ele>
        <time>2014-12-30T12:20:00Z</time>
      </trkpt>
      <trkpt lat="42.861956" lon="1.083209">
        <ele>1076.6</ele>
        <time>2014-12-30T12:20:13Z</time>
      </trkpt>
      <trkpt lat="42.861880" lon="1.083132">
        <ele>1077.2</ele>
        <time>2014-12-30T12:20:23Z</time>
      </trkpt>
      <trkpt lat="42.861798" lon="1.083063">
        <ele>1077.9</ele>
        <time>2014-12-30T12:20:33Z</time>
      </trkpt>
      <trkpt lat="42.861737" lon="1.082952">
        <ele>1078.6</ele>
        <time>2014-12-30T12:20:44Z</time>
      </trkpt>
      <trkpt lat="42.861688" lon="1.082857">
        <ele>1080.1</ele>
        <time>2014-12-30T12:20:59Z</time>
      </trkpt>
      <trkpt lat="42.861602" lon="1.082951">
        <ele>1081.0</ele>
        <time>2014-12-30T12:21:12Z</time>
      </trkpt>
      <trkpt lat="42.861508" lon="1.082932">
        <ele>1082.4</ele>
        <time>2014-12-30T12:21:29Z</time>
      </trkpt>
      <trkpt lat="42.861414" lon="1.082884">
        <ele>1083.4</ele>
        <time>2014-12-30T12:21:43Z</time>
      </trkpt>
      <trkpt lat="42.861323" lon="1.082808">
        <ele>1084.4</ele>
        <time>2014-12-30T12:21:58Z</time>
      </trkpt>
      <trkpt lat="42.861243" lon="1.082740">
        <ele>1086.1</ele>
        <time>2014-12-30T12:22:14Z</time>
      </trkpt>
      <trkpt lat="42.861130" lon="1.082706">
        <ele>1087.4</ele>
        <time>2014-12-30T12:22:28Z</time>
      </trkpt>
      <trkpt lat="42.861025" lon="1.082733">
        <ele>1088.5</ele>
        <time>2014-12-30T12:22:43Z</time>
      </trkpt>
      <trkpt lat="42.860947" lon="1.082731">
        <ele>1089.7</ele>
        <time>2014-12-30T12:22:57Z</time>
      </trkpt>
      <trkpt lat="42.860845" lon="1.082752">
        <ele>1090.8</ele>
        <time>2014-12-30T12:23:11Z</time>
      </trkpt>
      <trkpt lat="42.860717" lon="1.082789">
        <ele>1092.1</ele>
        <time>2014-12-30T12:23:25Z</time>
      </trkpt>
      <trkpt lat="42.860605" lon="1.082799">
        <ele>1093.3</ele>
        <time>2014-12-30T12:23:37Z</time>
      </trkpt>
      <trkpt lat="42.860532" lon="1.082766">
        <ele>1095.4</ele>
        <time>2014-12-30T12:23:54Z</time>
      </trkpt>
      <trkpt lat="42.860426" lon="1.082764">
        <ele>1097.1</ele>
        <time>2014-12-30T12:24:11Z</time>
      </trkpt>
      <trkpt lat="42.860318" lon="1.082767">
        <ele>1098.9</ele>
        <time>2014-12-30T12:24:28Z</time>
      </trkpt>
      <trkpt lat="42.860211" lon="1.082775">
        <ele>1100.6</ele>
        <time>2014-12-30T12:24:42Z</time>
      </trkpt>
      <trkpt lat="42.860107" lon="1.082756">
        <ele>1102.5</ele>
        <time>2014-12-30T12:24:56Z</time>
      </trkpt>
      <trkpt lat="42.859994" lon="1.082785">
        <ele>1103.7</ele>
        <time>2014-12-30T12:25:10Z</time>
      </trkpt>
      <trkpt lat="42.859877" lon="1.082811">
        <ele>1104.9</ele>
        <time>2014-12-30T12:25:24Z</time>
      </trkpt>
      <trkpt lat="42.859772" lon="1.082819">
        <ele>1106.0</ele>
        <time>2014-12-30T12:25:38Z</time>
      </trkpt>
      <trkpt lat="42.859662" lon="1.082802">
        <ele>1107.6</ele>
        <time>2014-12-30T12:25:52Z</time>
      </trkpt>
      <trkpt lat="42.859576" lon="1.082784">
        <ele>1109.8</ele>
        <time>2014-12-30T12:26:10Z</time>
      </trkpt>
      <trkpt lat="42.859462" lon="1.082816">
        <ele>1110.1</ele>
        <time>2014-12-30T12:26:23Z</time>
      </trkpt>
      <trkpt lat="42.859365" lon="1.082919">
        <ele>1110.4</ele>
        <time>2014-12-30T12:26:36Z</time>
      </trkpt>
      <trkpt lat="42.859316" lon="1.082962">
        <ele>1111.8</ele>
        <time>2014-12-30T12:26:49Z</time>
      </trkpt>
      <trkpt lat="42.859271" lon="1.083027">
        <ele>1112.8</ele>
        <time>2014-12-30T12:27:03Z</time>
      </trkpt>
      <trkpt lat="42.859215" lon="1.083131">
        <ele>1114.5</ele>
        <time>2014-12-30T12:27:20Z</time>
      </trkpt>
      <trkpt lat="42.859156" lon="1.083206">
        <ele>1116.3</ele>
        <time>2014-12-30T12:27:37Z</time>
      </trkpt>
      <trkpt lat="42.859074" lon="1.083215">
        <ele>1117.8</ele>
        <time>2014-12-30T12:27:54Z</time>
      </trkpt>
      <trkpt lat="42.858967" lon="1.083274">
        <ele>1119.3</ele>
        <time>2014-12-30T12:28:07Z</time>
      </trkpt>
      <trkpt lat="42.858925" lon="1.083235">
        <ele>1122.9</ele>
        <time>2014-12-30T12:29:37Z</time>
      </trkpt>
      <trkpt lat="42.858767" lon="1.083338">
        <ele>1124.2</ele>
        <time>2014-12-30T12:29:51Z</time>
      </trkpt>
      <trkpt lat="42.858647" lon="1.083452">
        <ele>1125.4</ele>
        <time>2014-12-30T12:30:07Z</time>
      </trkpt>
      <trkpt lat="42.858561" lon="1.083551">
        <ele>1126.4</ele>
        <time>2014-12-30T12:30:22Z</time>
      </trkpt>
      <trkpt lat="42.858493" lon="1.083630">
        <ele>1128.8</ele>
        <time>2014-12-30T12:30:41Z</time>
      </trkpt>
      <trkpt lat="42.858443" lon="1.083696">
        <ele>1130.1</ele>
        <time>2014-12-30T12:30:58Z</time>
      </trkpt>
      <trkpt lat="42.858420" lon="1.083621">
        <ele>1133.1</ele>
        <time>2014-12-30T12:31:20Z</time>
      </trkpt>
      <trkpt lat="42.858477" lon="1.083473">
        <ele>1135.3</ele>
        <time>2014-12-30T12:31:37Z</time>
      </trkpt>
      <trkpt lat="42.858531" lon="1.083325">
        <ele>1136.8</ele>
        <time>2014-12-30T12:31:54Z</time>
      </trkpt>
      <trkpt lat="42.858603" lon="1.083221">
        <ele>1137.1</ele>
        <time>2014-12-30T12:32:10Z</time>
      </trkpt>
      <trkpt lat="42.858641" lon="1.083093">
        <ele>1137.9</ele>
        <time>2014-12-30T12:32:27Z</time>
      </trkpt>
      <trkpt lat="42.858687" lon="1.082975">
        <ele>1139.9</ele>
        <time>2014-12-30T12:32:46Z</time>
      </trkpt>
      <trkpt lat="42.858738" lon="1.082882">
        <ele>1142.2</ele>
        <time>2014-12-30T12:33:07Z</time>
      </trkpt>
      <trkpt lat="42.858822" lon="1.082807">
        <ele>1143.4</ele>
        <time>2014-12-30T12:33:22Z</time>
      </trkpt>
      <trkpt lat="42.858885" lon="1.082732">
        <ele>1145.0</ele>
        <time>2014-12-30T12:33:37Z</time>
      </trkpt>
      <trkpt lat="42.858948" lon="1.082636">
        <ele>1146.2</ele>
        <time>2014-12-30T12:33:51Z</time>
      </trkpt>
      <trkpt lat="42.859011" lon="1.082510">
        <ele>1150.2</ele>
        <time>2014-12-30T12:35:50Z</time>
      </trkpt>
      <trkpt lat="42.859029" lon="1.082405">
        <ele>1150.8</ele>
        <time>2014-12-30T12:36:09Z</time>
      </trkpt>
      <trkpt lat="42.859078" lon="1.082361">
        <ele>1151.8</ele>
        <time>2014-12-30T12:36:34Z</time>
      </trkpt>
      <trkpt lat="42.859098" lon="1.082276">
        <ele>1151.7</ele>
        <time>2014-12-30T12:36:52Z</time>
      </trkpt>
      <trkpt lat="42.859147" lon="1.082154">
        <ele>1152.6</ele>
        <time>2014-12-30T12:37:09Z</time>
      </trkpt>
      <trkpt lat="42.859189" lon="1.082039">
        <ele>1153.5</ele>
        <time>2014-12-30T12:37:25Z</time>
      </trkpt>
      <trkpt lat="42.859246" lon="1.081980">
        <ele>1154.9</ele>
        <time>2014-12-30T12:37:46Z</time>
      </trkpt>
      <trkpt lat="42.859357" lon="1.081955">
        <ele>1156.0</ele>
        <time>2014-12-30T12:38:02Z</time>
      </trkpt>
      <trkpt lat="42.859428" lon="1.081942">
        <ele>1155.9</ele>
        <time>2014-12-30T12:38:18Z</time>
      </trkpt>
      <trkpt lat="42.859478" lon="1.081847">
        <ele>1156.4</ele>
        <time>2014-12-30T12:38:37Z</time>
      </trkpt>
      <trkpt lat="42.859553" lon="1.081772">
        <ele>1159.8</ele>
        <time>2014-12-30T12:39:01Z</time>
      </trkpt>
      <trkpt lat="42.859658" lon="1.081727">
        <ele>1162.3</ele>
        <time>2014-12-30T12:39:22Z</time>
      </trkpt>
      <trkpt lat="42.859757" lon="1.081696">
        <ele>1163.5</ele>
        <time>2014-12-30T12:39:46Z</time>
      </trkpt>
      <trkpt lat="42.859847" lon="1.081658">
        <ele>1164.5</ele>
        <time>2014-12-30T12:40:07Z</time>
      </trkpt>
      <trkpt lat="42.859951" lon="1.081611">
        <ele>1166.0</ele>
        <time>2014-12-30T12:40:29Z</time>
      </trkpt>
      <trkpt lat="42.860065" lon="1.081498">
        <ele>1168.0</ele>
        <time>2014-12-30T12:40:49Z</time>
      </trkpt>
      <trkpt lat="42.860152" lon="1.081430">
        <ele>1169.3</ele>
        <time>2014-12-30T12:41:13Z</time>
      </trkpt>
      <trkpt lat="42.860238" lon="1.081368">
        <ele>1171.0</ele>
        <time>2014-12-30T12:41:29Z</time>
      </trkpt>
      <trkpt lat="42.860320" lon="1.081292">
        <ele>1172.0</ele>
        <time>2014-12-30T12:41:50Z</time>
      </trkpt>
      <trkpt lat="42.860420" lon="1.081217">
        <ele>1174.4</ele>
        <time>2014-12-30T12:42:14Z</time>
      </trkpt>
      <trkpt lat="42.860532" lon="1.081170">
        <ele>1176.2</ele>
        <time>2014-12-30T12:42:34Z</time>
      </trkpt>
      <trkpt lat="42.860654" lon="1.081101">
        <ele>1177.1</ele>
        <time>2014-12-30T12:42:53Z</time>
      </trkpt>
      <trkpt lat="42.860739" lon="1.081045">
        <ele>1178.6</ele>
        <time>2014-12-30T12:43:14Z</time>
      </trkpt>
      <trkpt lat="42.860807" lon="1.080955">
        <ele>1180.2</ele>
        <time>2014-12-30T12:43:30Z</time>
      </trkpt>
      <trkpt lat="42.860753" lon="1.080903">
        <ele>1184.1</ele>
        <time>2014-12-30T12:43:58Z</time>
      </trkpt>
      <trkpt lat="42.860663" lon="1.080928">
        <ele>1186.0</ele>
        <time>2014-12-30T12:44:20Z</time>
      </trkpt>
      <trkpt lat="42.860557" lon="1.080959">
        <ele>1187.8</ele>
        <time>2014-12-30T12:44:39Z</time>
      </trkpt>
      <trkpt lat="42.860481" lon="1.081031">
        <ele>1189.3</ele>
        <time>2014-12-30T12:44:57Z</time>
      </trkpt>
      <trkpt lat="42.860408" lon="1.081082">
        <ele>1189.9</ele>
        <time>2014-12-30T12:45:36Z</time>
      </trkpt>
      <trkpt lat="42.860299" lon="1.081055">
        <ele>1191.5</ele>
        <time>2014-12-30T12:45:54Z</time>
      </trkpt>
      <trkpt lat="42.860217" lon="1.081065">
        <ele>1193.3</ele>
        <time>2014-12-30T12:46:15Z</time>
      </trkpt>
      <trkpt lat="42.860107" lon="1.081117">
        <ele>1196.5</ele>
        <time>2014-12-30T12:48:11Z</time>
      </trkpt>
      <trkpt lat="42.859997" lon="1.081099">
        <ele>1197.8</ele>
        <time>2014-12-30T12:48:30Z</time>
      </trkpt>
      <trkpt lat="42.859970" lon="1.081020">
        <ele>1200.3</ele>
        <time>2014-12-30T12:48:52Z</time>
      </trkpt>
      <trkpt lat="42.860047" lon="1.080920">
        <ele>1201.9</ele>
        <time>2014-12-30T12:49:10Z</time>
      </trkpt>
      <trkpt lat="42.860151" lon="1.080883">
        <ele>1203.1</ele>
        <time>2014-12-30T12:49:29Z</time>
      </trkpt>
      <trkpt lat="42.860245" lon="1.080776">
        <ele>1204.2</ele>
        <time>2014-12-30T12:49:53Z</time>
      </trkpt>
      <trkpt lat="42.860354" lon="1.080729">
        <ele>1205.4</ele>
        <time>2014-12-30T12:50:11Z</time>
      </trkpt>
      <trkpt lat="42.860436" lon="1.080656">
        <ele>1207.3</ele>
        <time>2014-12-30T12:50:32Z</time>
      </trkpt>
      <trkpt lat="42.860496" lon="1.080585">
        <ele>1209.7</ele>
        <time>2014-12-30T12:51:01Z</time>
      </trkpt>
      <trkpt lat="42.860551" lon="1.080516">
        <ele>1210.6</ele>
        <time>2014-12-30T12:51:16Z</time>
      </trkpt>
      <trkpt lat="42.860664" lon="1.080438">
        <ele>1212.0</ele>
        <time>2014-12-30T12:51:34Z</time>
      </trkpt>
      <trkpt lat="42.860767" lon="1.080396">
        <ele>1213.6</ele>
        <time>2014-12-30T12:51:53Z</time>
      </trkpt>
      <trkpt lat="42.860859" lon="1.080349">
        <ele>1215.3</ele>
        <time>2014-12-30T12:52:11Z</time>
      </trkpt>
      <trkpt lat="42.860918" lon="1.080278">
        <ele>1216.7</ele>
        <time>2014-12-30T12:52:34Z</time>
      </trkpt>
      <trkpt lat="42.860997" lon="1.080227">
        <ele>1218.8</ele>
        <time>2014-12-30T12:52:56Z</time>
      </trkpt>
      <trkpt lat="42.861082" lon="1.080176">
        <ele>1220.9</ele>
        <time>2014-12-30T12:53:15Z</time>
      </trkpt>
      <trkpt lat="42.861202" lon="1.080163">
        <ele>1222.2</ele>
        <time>2014-12-30T12:53:33Z</time>
      </trkpt>
      <trkpt lat="42.861283" lon="1.080109">
        <ele>1223.8</ele>
        <time>2014-12-30T12:53:54Z</time>
      </trkpt>
      <trkpt lat="42.861391" lon="1.080124">
        <ele>1225.7</ele>
        <time>2014-12-30T12:54:13Z</time>
      </trkpt>
      <trkpt lat="42.861506" lon="1.080098">
        <ele>1227.4</ele>
        <time>2014-12-30T12:54:32Z</time>
      </trkpt>
      <trkpt lat="42.861592" lon="1.080100">
        <ele>1228.8</ele>
        <time>2014-12-30T12:54:50Z</time>
      </trkpt>
      <trkpt lat="42.861663" lon="1.080131">
        <ele>1230.1</ele>
        <time>2014-12-30T12:55:04Z</time>
      </trkpt>
      <trkpt lat="42.861610" lon="1.080097">
        <ele>1232.4</ele>
        <time>2014-12-30T12:58:59Z</time>
      </trkpt>
      <trkpt lat="42.861583" lon="1.080082">
        <ele>1233.3</ele>
        <time>2014-12-30T12:59:38Z</time>
      </trkpt>
      <trkpt lat="42.861539" lon="1.080035">
        <ele>1235.0</ele>
        <time>2014-12-30T12:59:54Z</time>
      </trkpt>
      <trkpt lat="42.861443" lon="1.079990">
        <ele>1236.0</ele>
        <time>2014-12-30T13:00:08Z</time>
      </trkpt>
      <trkpt lat="42.861392" lon="1.079918">
        <ele>1237.7</ele>
        <time>2014-12-30T13:00:23Z</time>
      </trkpt>
      <trkpt lat="42.861305" lon="1.079850">
        <ele>1239.7</ele>
        <time>2014-12-30T13:00:39Z</time>
      </trkpt>
      <trkpt lat="42.861206" lon="1.079834">
        <ele>1241.2</ele>
        <time>2014-12-30T13:00:55Z</time>
      </trkpt>
      <trkpt lat="42.861108" lon="1.079789">
        <ele>1242.7</ele>
        <time>2014-12-30T13:01:09Z</time>
      </trkpt>
      <trkpt lat="42.861033" lon="1.079791">
        <ele>1244.0</ele>
        <time>2014-12-30T13:01:21Z</time>
      </trkpt>
      <trkpt lat="42.860968" lon="1.079800">
        <ele>1245.4</ele>
        <time>2014-12-30T13:01:34Z</time>
      </trkpt>
      <trkpt lat="42.860898" lon="1.079799">
        <ele>1247.2</ele>
        <time>2014-12-30T13:01:48Z</time>
      </trkpt>
      <trkpt lat="42.860819" lon="1.079815">
        <ele>1248.3</ele>
        <time>2014-12-30T13:02:01Z</time>
      </trkpt>
      <trkpt lat="42.860733" lon="1.079788">
        <ele>1249.1</ele>
        <time>2014-12-30T13:02:15Z</time>
      </trkpt>
      <trkpt lat="42.860695" lon="1.079755">
        <ele>1250.1</ele>
        <time>2014-12-30T13:02:31Z</time>
      </trkpt>
      <trkpt lat="42.860650" lon="1.079731">
        <ele>1251.7</ele>
        <time>2014-12-30T13:02:50Z</time>
      </trkpt>
      <trkpt lat="42.860550" lon="1.079696">
        <ele>1252.4</ele>
        <time>2014-12-30T13:03:10Z</time>
      </trkpt>
      <trkpt lat="42.860474" lon="1.079712">
        <ele>1253.5</ele>
        <time>2014-12-30T13:03:27Z</time>
      </trkpt>
      <trkpt lat="42.860373" lon="1.079659">
        <ele>1254.7</ele>
        <time>2014-12-30T13:03:43Z</time>
      </trkpt>
      <trkpt lat="42.860427" lon="1.079639">
        <ele>1269.9</ele>
        <time>2014-12-30T13:10:15Z</time>
      </trkpt>
      <trkpt lat="42.860484" lon="1.079622">
        <ele>1270.6</ele>
        <time>2014-12-30T13:10:33Z</time>
      </trkpt>
      <trkpt lat="42.860570" lon="1.079594">
        <ele>1271.3</ele>
        <time>2014-12-30T13:10:49Z</time>
      </trkpt>
      <trkpt lat="42.860635" lon="1.079564">
        <ele>1272.6</ele>
        <time>2014-12-30T13:11:08Z</time>
      </trkpt>
      <trkpt lat="42.860709" lon="1.079569">
        <ele>1272.9</ele>
        <time>2014-12-30T13:11:28Z</time>
      </trkpt>
      <trkpt lat="42.860733" lon="1.079502">
        <ele>1274.4</ele>
        <time>2014-12-30T13:11:57Z</time>
      </trkpt>
      <trkpt lat="42.860789" lon="1.079457">
        <ele>1276.1</ele>
        <time>2014-12-30T13:12:29Z</time>
      </trkpt>
      <trkpt lat="42.860794" lon="1.079409">
        <ele>1279.3</ele>
        <time>2014-12-30T13:13:24Z</time>
      </trkpt>
      <trkpt lat="42.860884" lon="1.079375">
        <ele>1279.9</ele>
        <time>2014-12-30T13:13:50Z</time>
      </trkpt>
      <trkpt lat="42.860940" lon="1.079314">
        <ele>1282.3</ele>
        <time>2014-12-30T13:14:17Z</time>
      </trkpt>
      <trkpt lat="42.861028" lon="1.079300">
        <ele>1282.7</ele>
        <time>2014-12-30T13:14:37Z</time>
      </trkpt>
      <trkpt lat="42.861108" lon="1.079271">
        <ele>1282.5</ele>
        <time>2014-12-30T13:15:05Z</time>
      </trkpt>
      <trkpt lat="42.861188" lon="1.079206">
        <ele>1283.4</ele>
        <time>2014-12-30T13:15:27Z</time>
      </trkpt>
      <trkpt lat="42.861292" lon="1.079196">
        <ele>1284.4</ele>
        <time>2014-12-30T13:15:48Z</time>
      </trkpt>
      <trkpt lat="42.861313" lon="1.079127">
        <ele>1285.7</ele>
        <time>2014-12-30T13:16:13Z</time>
      </trkpt>
      <trkpt lat="42.861332" lon="1.079054">
        <ele>1287.6</ele>
        <time>2014-12-30T13:16:33Z</time>
      </trkpt>
      <trkpt lat="42.861439" lon="1.079065">
        <ele>1288.7</ele>
        <time>2014-12-30T13:16:55Z</time>
      </trkpt>
      <trkpt lat="42.861527" lon="1.079002">
        <ele>1289.6</ele>
        <time>2014-12-30T13:17:14Z</time>
      </trkpt>
      <trkpt lat="42.861647" lon="1.078947">
        <ele>1294.8</ele>
        <time>2014-12-30T13:18:47Z</time>
      </trkpt>
      <trkpt lat="42.861683" lon="1.078889">
        <ele>1295.1</ele>
        <time>2014-12-30T13:19:08Z</time>
      </trkpt>
      <trkpt lat="42.861814" lon="1.078934">
        <ele>1295.5</ele>
        <time>2014-12-30T13:19:24Z</time>
      </trkpt>
      <trkpt lat="42.861909" lon="1.078915">
        <ele>1296.6</ele>
        <time>2014-12-30T13:19:43Z</time>
      </trkpt>
      <trkpt lat="42.861985" lon="1.078818">
        <ele>1297.8</ele>
        <time>2014-12-30T13:20:01Z</time>
      </trkpt>
      <trkpt lat="42.862087" lon="1.078774">
        <ele>1298.3</ele>
        <time>2014-12-30T13:20:21Z</time>
      </trkpt>
      <trkpt lat="42.862148" lon="1.078669">
        <ele>1299.8</ele>
        <time>2014-12-30T13:20:41Z</time>
      </trkpt>
      <trkpt lat="42.862215" lon="1.078595">
        <ele>1301.8</ele>
        <time>2014-12-30T13:21:01Z</time>
      </trkpt>
      <trkpt lat="42.862260" lon="1.078512">
        <ele>1303.0</ele>
        <time>2014-12-30T13:21:16Z</time>
      </trkpt>
      <trkpt lat="42.862331" lon="1.078404">
        <ele>1304.4</ele>
        <time>2014-12-30T13:21:39Z</time>
      </trkpt>
      <trkpt lat="42.862354" lon="1.078307">
        <ele>1305.8</ele>
        <time>2014-12-30T13:21:57Z</time>
      </trkpt>
      <trkpt lat="42.862469" lon="1.078220">
        <ele>1307.1</ele>
        <time>2014-12-30T13:22:13Z</time>
      </trkpt>
      <trkpt lat="42.862485" lon="1.078108">
        <ele>1308.7</ele>
        <time>2014-12-30T13:22:31Z</time>
      </trkpt>
      <trkpt lat="42.862534" lon="1.078016">
        <ele>1310.6</ele>
        <time>2014-12-30T13:22:47Z</time>
      </trkpt>
      <trkpt lat="42.862607" lon="1.077939">
        <ele>1311.7</ele>
        <time>2014-12-30T13:23:03Z</time>
      </trkpt>
      <trkpt lat="42.862666" lon="1.077835">
        <ele>1313.4</ele>
        <time>2014-12-30T13:23:22Z</time>
      </trkpt>
      <trkpt lat="42.862688" lon="1.077698">
        <ele>1315.5</ele>
        <time>2014-12-30T13:23:41Z</time>
      </trkpt>
      <trkpt lat="42.862783" lon="1.077680">
        <ele>1317.1</ele>
        <time>2014-12-30T13:24:00Z</time>
      </trkpt>
      <trkpt lat="42.862840" lon="1.077652">
        <ele>1320.6</ele>
        <time>2014-12-30T13:30:48Z</time>
      </trkpt>
      <trkpt lat="42.862786" lon="1.077539">
        <ele>1321.9</ele>
        <time>2014-12-30T13:31:07Z</time>
      </trkpt>
      <trkpt lat="42.862749" lon="1.077429">
        <ele>1324.6</ele>
        <time>2014-12-30T13:31:29Z</time>
      </trkpt>
      <trkpt lat="42.862749" lon="1.077335">
        <ele>1328.1</ele>
        <time>2014-12-30T13:31:59Z</time>
      </trkpt>
      <trkpt lat="42.862697" lon="1.077237">
        <ele>1331.9</ele>
        <time>2014-12-30T13:32:31Z</time>
      </trkpt>
      <trkpt lat="42.862660" lon="1.077148">
        <ele>1335.2</ele>
        <time>2014-12-30T13:33:26Z</time>
      </trkpt>
      <trkpt lat="42.862646" lon="1.077113">
        <ele>1337.5</ele>
        <time>2014-12-30T13:34:09Z</time>
      </trkpt>
      <trkpt lat="42.862673" lon="1.077092">
        <ele>1338.7</ele>
        <time>2014-12-30T13:34:48Z</time>
      </trkpt>
      <trkpt lat="42.862645" lon="1.077024">
        <ele>1339.0</ele>
        <time>2014-12-30T13:36:15Z</time>
      </trkpt>
      <trkpt lat="42.862630" lon="1.076891">
        <ele>1339.1</ele>
        <time>2014-12-30T13:36:31Z</time>
      </trkpt>
      <trkpt lat="42.862537" lon="1.076802">
        <ele>1338.9</ele>
        <time>2014-12-30T13:36:43Z</time>
      </trkpt>
      <trkpt lat="42.862482" lon="1.076674">
        <ele>1339.4</ele>
        <time>2014-12-30T13:36:53Z</time>
      </trkpt>
      <trkpt lat="42.862409" lon="1.076585">
        <ele>1339.8</ele>
        <time>2014-12-30T13:37:04Z</time>
      </trkpt>
      <trkpt lat="42.862306" lon="1.076511">
        <ele>1340.5</ele>
        <time>2014-12-30T13:37:17Z</time>
      </trkpt>
      <trkpt lat="42.862186" lon="1.076505">
        <ele>1341.5</ele>
        <time>2014-12-30T13:37:31Z</time>
      </trkpt>
      <trkpt lat="42.862062" lon="1.076514">
        <ele>1343.6</ele>
        <time>2014-12-30T13:37:46Z</time>
      </trkpt>
      <trkpt lat="42.861932" lon="1.076520">
        <ele>1344.6</ele>
        <time>2014-12-30T13:38:00Z</time>
      </trkpt>
      <trkpt lat="42.861836" lon="1.076531">
        <ele>1346.1</ele>
        <time>2014-12-30T13:38:14Z</time>
      </trkpt>
      <trkpt lat="42.861700" lon="1.076526">
        <ele>1347.3</ele>
        <time>2014-12-30T13:38:27Z</time>
      </trkpt>
      <trkpt lat="42.861563" lon="1.076524">
        <ele>1348.9</ele>
        <time>2014-12-30T13:38:42Z</time>
      </trkpt>
      <trkpt lat="42.861432" lon="1.076524">
        <ele>1350.0</ele>
        <time>2014-12-30T13:38:56Z</time>
      </trkpt>
      <trkpt lat="42.861296" lon="1.076503">
        <ele>1351.5</ele>
        <time>2014-12-30T13:39:08Z</time>
      </trkpt>
      <trkpt lat="42.861175" lon="1.076496">
        <ele>1352.9</ele>
        <time>2014-12-30T13:39:21Z</time>
      </trkpt>
      <trkpt lat="42.861052" lon="1.076487">
        <ele>1353.9</ele>
        <time>2014-12-30T13:39:34Z</time>
      </trkpt>
      <trkpt lat="42.860934" lon="1.076442">
        <ele>1354.9</ele>
        <time>2014-12-30T13:39:48Z</time>
      </trkpt>
      <trkpt lat="42.860819" lon="1.076403">
        <ele>1356.2</ele>
        <time>2014-12-30T13:40:01Z</time>
      </trkpt>
      <trkpt lat="42.860698" lon="1.076367">
        <ele>1357.4</ele>
        <time>2014-12-30T13:40:14Z</time>
      </trkpt>
      <trkpt lat="42.860560" lon="1.076305">
        <ele>1358.5</ele>
        <time>2014-12-30T13:40:27Z</time>
      </trkpt>
      <trkpt lat="42.860458" lon="1.076247">
        <ele>1359.6</ele>
        <time>2014-12-30T13:40:38Z</time>
      </trkpt>
      <trkpt lat="42.860377" lon="1.076178">
        <ele>1360.9</ele>
        <time>2014-12-30T13:40:50Z</time>
      </trkpt>
      <trkpt lat="42.860292" lon="1.076090">
        <ele>1361.8</ele>
        <time>2014-12-30T13:41:03Z</time>
      </trkpt>
      <trkpt lat="42.860217" lon="1.075983">
        <ele>1362.7</ele>
        <time>2014-12-30T13:41:16Z</time>
      </trkpt>
      <trkpt lat="42.860177" lon="1.075842">
        <ele>1363.8</ele>
        <time>2014-12-30T13:41:30Z</time>
      </trkpt>
      <trkpt lat="42.860168" lon="1.075654">
        <ele>1365.3</ele>
        <time>2014-12-30T13:41:44Z</time>
      </trkpt>
      <trkpt lat="42.860102" lon="1.075560">
        <ele>1366.2</ele>
        <time>2014-12-30T13:41:59Z</time>
      </trkpt>
      <trkpt lat="42.860009" lon="1.075547">
        <ele>1367.3</ele>
        <time>2014-12-30T13:42:15Z</time>
      </trkpt>
      <trkpt lat="42.859896" lon="1.075578">
        <ele>1368.7</ele>
        <time>2014-12-30T13:42:30Z</time>
      </trkpt>
      <trkpt lat="42.859756" lon="1.075581">
        <ele>1370.3</ele>
        <time>2014-12-30T13:42:47Z</time>
      </trkpt>
      <trkpt lat="42.859597" lon="1.075546">
        <ele>1372.2</ele>
        <time>2014-12-30T13:43:05Z</time>
      </trkpt>
      <trkpt lat="42.859468" lon="1.075476">
        <ele>1373.8</ele>
        <time>2014-12-30T13:43:19Z</time>
      </trkpt>
      <trkpt lat="42.859370" lon="1.075415">
        <ele>1375.2</ele>
        <time>2014-12-30T13:43:36Z</time>
      </trkpt>
      <trkpt lat="42.859351" lon="1.075395">
        <ele>1376.7</ele>
        <time>2014-12-30T13:44:25Z</time>
      </trkpt>
      <trkpt lat="42.859184" lon="1.075303">
        <ele>1377.3</ele>
        <time>2014-12-30T13:44:42Z</time>
      </trkpt>
      <trkpt lat="42.859066" lon="1.075198">
        <ele>1378.6</ele>
        <time>2014-12-30T13:44:55Z</time>
      </trkpt>
      <trkpt lat="42.858976" lon="1.075062">
        <ele>1380.1</ele>
        <time>2014-12-30T13:45:11Z</time>
      </trkpt>
      <trkpt lat="42.858920" lon="1.074890">
        <ele>1381.6</ele>
        <time>2014-12-30T13:45:26Z</time>
      </trkpt>
      <trkpt lat="42.858912" lon="1.074740">
        <ele>1383.3</ele>
        <time>2014-12-30T13:45:40Z</time>
      </trkpt>
      <trkpt lat="42.858883" lon="1.074591">
        <ele>1384.6</ele>
        <time>2014-12-30T13:45:54Z</time>
      </trkpt>
      <trkpt lat="42.858825" lon="1.074442">
        <ele>1385.6</ele>
        <time>2014-12-30T13:46:09Z</time>
      </trkpt>
      <trkpt lat="42.858747" lon="1.074270">
        <ele>1386.9</ele>
        <time>2014-12-30T13:46:26Z</time>
      </trkpt>
      <trkpt lat="42.858733" lon="1.074130">
        <ele>1387.4</ele>
        <time>2014-12-30T13:46:40Z</time>
      </trkpt>
      <trkpt lat="42.858802" lon="1.074006">
        <ele>1388.5</ele>
        <time>2014-12-30T13:46:56Z</time>
      </trkpt>
      <trkpt lat="42.858868" lon="1.073894">
        <ele>1389.6</ele>
        <time>2014-12-30T13:47:10Z</time>
      </trkpt>
      <trkpt lat="42.858943" lon="1.073796">
        <ele>1390.7</ele>
        <time>2014-12-30T13:47:24Z</time>
      </trkpt>
      <trkpt lat="42.859029" lon="1.073708">
        <ele>1392.0</ele>
        <time>2014-12-30T13:47:39Z</time>
      </trkpt>
      <trkpt lat="42.859097" lon="1.073611">
        <ele>1393.1</ele>
        <time>2014-12-30T13:47:52Z</time>
      </trkpt>
      <trkpt lat="42.859168" lon="1.073510">
        <ele>1394.7</ele>
        <time>2014-12-30T13:48:09Z</time>
      </trkpt>
      <trkpt lat="42.859268" lon="1.073452">
        <ele>1395.9</ele>
        <time>2014-12-30T13:48:24Z</time>
      </trkpt>
      <trkpt lat="42.859373" lon="1.073511">
        <ele>1396.9</ele>
        <time>2014-12-30T13:48:39Z</time>
      </trkpt>
      <trkpt lat="42.859484" lon="1.073581">
        <ele>1398.7</ele>
        <time>2014-12-30T13:48:55Z</time>
      </trkpt>
      <trkpt lat="42.859573" lon="1.073666">
        <ele>1400.0</ele>
        <time>2014-12-30T13:49:08Z</time>
      </trkpt>
      <trkpt lat="42.859657" lon="1.073726">
        <ele>1401.2</ele>
        <time>2014-12-30T13:49:21Z</time>
      </trkpt>
      <trkpt lat="42.859725" lon="1.073738">
        <ele>1402.4</ele>
        <time>2014-12-30T13:49:33Z</time>
      </trkpt>
      <trkpt lat="42.859805" lon="1.073716">
        <ele>1403.3</ele>
        <time>2014-12-30T13:49:47Z</time>
      </trkpt>
      <trkpt lat="42.859874" lon="1.073583">
        <ele>1404.5</ele>
        <time>2014-12-30T13:50:04Z</time>
      </trkpt>
      <trkpt lat="42.859873" lon="1.073417">
        <ele>1406.1</ele>
        <time>2014-12-30T13:50:19Z</time>
      </trkpt>
      <trkpt lat="42.859845" lon="1.073251">
        <ele>1407.2</ele>
        <time>2014-12-30T13:50:33Z</time>
      </trkpt>
      <trkpt lat="42.859798" lon="1.073112">
        <ele>1408.1</ele>
        <time>2014-12-30T13:50:47Z</time>
      </trkpt>
      <trkpt lat="42.859812" lon="1.072955">
        <ele>1409.8</ele>
        <time>2014-12-30T13:51:05Z</time>
      </trkpt>
      <trkpt lat="42.859863" lon="1.072796">
        <ele>1411.6</ele>
        <time>2014-12-30T13:51:21Z</time>
      </trkpt>
      <trkpt lat="42.859941" lon="1.072675">
        <ele>1412.6</ele>
        <time>2014-12-30T13:51:37Z</time>
      </trkpt>
      <trkpt lat="42.860030" lon="1.072582">
        <ele>1413.7</ele>
        <time>2014-12-30T13:51:52Z</time>
      </trkpt>
      <trkpt lat="42.860104" lon="1.072468">
        <ele>1414.8</ele>
        <time>2014-12-30T13:52:05Z</time>
      </trkpt>
      <trkpt lat="42.860176" lon="1.072336">
        <ele>1416.0</ele>
        <time>2014-12-30T13:52:19Z</time>
      </trkpt>
      <trkpt lat="42.860245" lon="1.072206">
        <ele>1416.8</ele>
        <time>2014-12-30T13:52:34Z</time>
      </trkpt>
      <trkpt lat="42.860304" lon="1.072071">
        <ele>1417.7</ele>
        <time>2014-12-30T13:52:49Z</time>
      </trkpt>
      <trkpt lat="42.860369" lon="1.071948">
        <ele>1418.4</ele>
        <time>2014-12-30T13:53:02Z</time>
      </trkpt>
      <trkpt lat="42.860451" lon="1.071840">
        <ele>1419.3</ele>
        <time>2014-12-30T13:53:15Z</time>
      </trkpt>
      <trkpt lat="42.860531" lon="1.071724">
        <ele>1420.2</ele>
        <time>2014-12-30T13:53:30Z</time>
      </trkpt>
      <trkpt lat="42.860614" lon="1.071617">
        <ele>1420.7</ele>
        <time>2014-12-30T13:53:44Z</time>
      </trkpt>
      <trkpt lat="42.860705" lon="1.071513">
        <ele>1421.4</ele>
        <time>2014-12-30T13:53:58Z</time>
      </trkpt>
      <trkpt lat="42.860783" lon="1.071418">
        <ele>1422.2</ele>
        <time>2014-12-30T13:54:11Z</time>
      </trkpt>
      <trkpt lat="42.860856" lon="1.071310">
        <ele>1422.7</ele>
        <time>2014-12-30T13:54:24Z</time>
      </trkpt>
      <trkpt lat="42.860945" lon="1.071205">
        <ele>1422.9</ele>
        <time>2014-12-30T13:54:37Z</time>
      </trkpt>
      <trkpt lat="42.861003" lon="1.071085">
        <ele>1423.3</ele>
        <time>2014-12-30T13:54:50Z</time>
      </trkpt>
      <trkpt lat="42.861001" lon="1.070930">
        <ele>1423.8</ele>
        <time>2014-12-30T13:55:03Z</time>
      </trkpt>
      <trkpt lat="42.860979" lon="1.070781">
        <ele>1424.7</ele>
        <time>2014-12-30T13:55:17Z</time>
      </trkpt>
      <trkpt lat="42.860959" lon="1.070607">
        <ele>1425.7</ele>
        <time>2014-12-30T13:55:31Z</time>
      </trkpt>
      <trkpt lat="42.860952" lon="1.070467">
        <ele>1426.7</ele>
        <time>2014-12-30T13:55:44Z</time>
      </trkpt>
      <trkpt lat="42.860930" lon="1.070324">
        <ele>1427.6</ele>
        <time>2014-12-30T13:55:59Z</time>
      </trkpt>
      <trkpt lat="42.860879" lon="1.070158">
        <ele>1428.4</ele>
        <time>2014-12-30T13:56:15Z</time>
      </trkpt>
      <trkpt lat="42.860822" lon="1.070025">
        <ele>1429.3</ele>
        <time>2014-12-30T13:56:31Z</time>
      </trkpt>
      <trkpt lat="42.860781" lon="1.069876">
        <ele>1429.9</ele>
        <time>2014-12-30T13:56:46Z</time>
      </trkpt>
      <trkpt lat="42.860788" lon="1.069697">
        <ele>1431.1</ele>
        <time>2014-12-30T13:57:02Z</time>
      </trkpt>
      <trkpt lat="42.860828" lon="1.069554">
        <ele>1431.5</ele>
        <time>2014-12-30T13:57:16Z</time>
      </trkpt>
      <trkpt lat="42.860882" lon="1.069411">
        <ele>1431.7</ele>
        <time>2014-12-30T13:57:32Z</time>
      </trkpt>
      <trkpt lat="42.860930" lon="1.069291">
        <ele>1432.0</ele>
        <time>2014-12-30T13:57:44Z</time>
      </trkpt>
      <trkpt lat="42.860957" lon="1.069179">
        <ele>1432.7</ele>
        <time>2014-12-30T13:57:57Z</time>
      </trkpt>
      <trkpt lat="42.860961" lon="1.069050">
        <ele>1433.0</ele>
        <time>2014-12-30T13:58:09Z</time>
      </trkpt>
      <trkpt lat="42.860968" lon="1.068908">
        <ele>1433.5</ele>
        <time>2014-12-30T13:58:25Z</time>
      </trkpt>
      <trkpt lat="42.861002" lon="1.068757">
        <ele>1433.8</ele>
        <time>2014-12-30T13:58:39Z</time>
      </trkpt>
      <trkpt lat="42.861045" lon="1.068636">
        <ele>1434.4</ele>
        <time>2014-12-30T13:59:06Z</time>
      </trkpt>
      <trkpt lat="42.861087" lon="1.068552">
        <ele>1434.4</ele>
        <time>2014-12-30T13:59:20Z</time>
      </trkpt>
      <trkpt lat="42.861151" lon="1.068490">
        <ele>1434.3</ele>
        <time>2014-12-30T13:59:43Z</time>
      </trkpt>
      <trkpt lat="42.861223" lon="1.068375">
        <ele>1434.8</ele>
        <time>2014-12-30T13:59:56Z</time>
      </trkpt>
      <trkpt lat="42.861297" lon="1.068271">
        <ele>1435.8</ele>
        <time>2014-12-30T14:00:10Z</time>
      </trkpt>
      <trkpt lat="42.861383" lon="1.068183">
        <ele>1436.8</ele>
        <time>2014-12-30T14:00:28Z</time>
      </trkpt>
      <trkpt lat="42.861444" lon="1.068070">
        <ele>1437.7</ele>
        <time>2014-12-30T14:00:41Z</time>
      </trkpt>
      <trkpt lat="42.861510" lon="1.067996">
        <ele>1437.6</ele>
        <time>2014-12-30T14:01:01Z</time>
      </trkpt>
      <trkpt lat="42.861587" lon="1.067897">
        <ele>1438.0</ele>
        <time>2014-12-30T14:01:14Z</time>
      </trkpt>
      <trkpt lat="42.861674" lon="1.067812">
        <ele>1439.2</ele>
        <time>2014-12-30T14:01:27Z</time>
      </trkpt>
      <trkpt lat="42.861736" lon="1.067674">
        <ele>1439.7</ele>
        <time>2014-12-30T14:01:39Z</time>
      </trkpt>
      <trkpt lat="42.861780" lon="1.067536">
        <ele>1439.8</ele>
        <time>2014-12-30T14:01:53Z</time>
      </trkpt>
      <trkpt lat="42.861807" lon="1.067391">
        <ele>1440.0</ele>
        <time>2014-12-30T14:02:06Z</time>
      </trkpt>
      <trkpt lat="42.861810" lon="1.067228">
        <ele>1440.4</ele>
        <time>2014-12-30T14:02:18Z</time>
      </trkpt>
      <trkpt lat="42.861821" lon="1.067096">
        <ele>1440.9</ele>
        <time>2014-12-30T14:02:29Z</time>
      </trkpt>
      <trkpt lat="42.861840" lon="1.066955">
        <ele>1441.5</ele>
        <time>2014-12-30T14:02:41Z</time>
      </trkpt>
      <trkpt lat="42.861885" lon="1.066826">
        <ele>1442.0</ele>
        <time>2014-12-30T14:02:53Z</time>
      </trkpt>
      <trkpt lat="42.861949" lon="1.066694">
        <ele>1442.7</ele>
        <time>2014-12-30T14:03:06Z</time>
      </trkpt>
      <trkpt lat="42.862023" lon="1.066578">
        <ele>1443.2</ele>
        <time>2014-12-30T14:03:19Z</time>
      </trkpt>
      <trkpt lat="42.862097" lon="1.066478">
        <ele>1443.8</ele>
        <time>2014-12-30T14:03:31Z</time>
      </trkpt>
      <trkpt lat="42.862180" lon="1.066382">
        <ele>1444.4</ele>
        <time>2014-12-30T14:03:43Z</time>
      </trkpt>
      <trkpt lat="42.862271" lon="1.066275">
        <ele>1445.2</ele>
        <time>2014-12-30T14:03:57Z</time>
      </trkpt>
      <trkpt lat="42.862333" lon="1.066165">
        <ele>1445.6</ele>
        <time>2014-12-30T14:04:09Z</time>
      </trkpt>
      <trkpt lat="42.862371" lon="1.066038">
        <ele>1446.3</ele>
        <time>2014-12-30T14:04:21Z</time>
      </trkpt>
      <trkpt lat="42.862401" lon="1.065902">
        <ele>1446.4</ele>
        <time>2014-12-30T14:04:32Z</time>
      </trkpt>
      <trkpt lat="42.862447" lon="1.065796">
        <ele>1446.9</ele>
        <time>2014-12-30T14:04:42Z</time>
      </trkpt>
      <trkpt lat="42.862495" lon="1.065684">
        <ele>1447.2</ele>
        <time>2014-12-30T14:04:53Z</time>
      </trkpt>
      <trkpt lat="42.862557" lon="1.065575">
        <ele>1447.9</ele>
        <time>2014-12-30T14:05:05Z</time>
      </trkpt>
      <trkpt lat="42.862613" lon="1.065458">
        <ele>1448.4</ele>
        <time>2014-12-30T14:05:19Z</time>
      </trkpt>
      <trkpt lat="42.862671" lon="1.065323">
        <ele>1448.5</ele>
        <time>2014-12-30T14:05:32Z</time>
      </trkpt>
      <trkpt lat="42.862723" lon="1.065192">
        <ele>1449.4</ele>
        <time>2014-12-30T14:05:45Z</time>
      </trkpt>
      <trkpt lat="42.862767" lon="1.065050">
        <ele>1450.0</ele>
        <time>2014-12-30T14:05:59Z</time>
      </trkpt>
      <trkpt lat="42.862798" lon="1.064898">
        <ele>1450.1</ele>
        <time>2014-12-30T14:06:13Z</time>
      </trkpt>
      <trkpt lat="42.862812" lon="1.064759">
        <ele>1450.5</ele>
        <time>2014-12-30T14:06:26Z</time>
      </trkpt>
      <trkpt lat="42.862815" lon="1.064610">
        <ele>1451.2</ele>
        <time>2014-12-30T14:06:39Z</time>
      </trkpt>
      <trkpt lat="42.862816" lon="1.064494">
        <ele>1451.4</ele>
        <time>2014-12-30T14:07:01Z</time>
      </trkpt>
      <trkpt lat="42.862897" lon="1.064358">
        <ele>1451.8</ele>
        <time>2014-12-30T14:07:13Z</time>
      </trkpt>
      <trkpt lat="42.862957" lon="1.064221">
        <ele>1452.8</ele>
        <time>2014-12-30T14:07:26Z</time>
      </trkpt>
      <trkpt lat="42.863026" lon="1.064099">
        <ele>1452.9</ele>
        <time>2014-12-30T14:07:39Z</time>
      </trkpt>
      <trkpt lat="42.863074" lon="1.063997">
        <ele>1453.1</ele>
        <time>2014-12-30T14:07:50Z</time>
      </trkpt>
      <trkpt lat="42.863126" lon="1.063887">
        <ele>1453.7</ele>
        <time>2014-12-30T14:08:03Z</time>
      </trkpt>
      <trkpt lat="42.863175" lon="1.063742">
        <ele>1454.2</ele>
        <time>2014-12-30T14:08:18Z</time>
      </trkpt>
      <trkpt lat="42.863244" lon="1.063627">
        <ele>1454.6</ele>
        <time>2014-12-30T14:08:33Z</time>
      </trkpt>
      <trkpt lat="42.863272" lon="1.063484">
        <ele>1455.0</ele>
        <time>2014-12-30T14:08:48Z</time>
      </trkpt>
      <trkpt lat="42.863333" lon="1.063356">
        <ele>1455.2</ele>
        <time>2014-12-30T14:09:02Z</time>
      </trkpt>
      <trkpt lat="42.863442" lon="1.063271">
        <ele>1455.6</ele>
        <time>2014-12-30T14:09:16Z</time>
      </trkpt>
      <trkpt lat="42.863538" lon="1.063179">
        <ele>1456.2</ele>
        <time>2014-12-30T14:09:32Z</time>
      </trkpt>
      <trkpt lat="42.863640" lon="1.063093">
        <ele>1456.7</ele>
        <time>2014-12-30T14:09:43Z</time>
      </trkpt>
      <trkpt lat="42.863725" lon="1.063014">
        <ele>1457.3</ele>
        <time>2014-12-30T14:09:55Z</time>
      </trkpt>
      <trkpt lat="42.863815" lon="1.062947">
        <ele>1457.5</ele>
        <time>2014-12-30T14:10:09Z</time>
      </trkpt>
      <trkpt lat="42.863934" lon="1.062906">
        <ele>1458.5</ele>
        <time>2014-12-30T14:10:22Z</time>
      </trkpt>
      <trkpt lat="42.864044" lon="1.062884">
        <ele>1458.7</ele>
        <time>2014-12-30T14:10:34Z</time>
      </trkpt>
      <trkpt lat="42.864149" lon="1.062864">
        <ele>1459.1</ele>
        <time>2014-12-30T14:10:45Z</time>
      </trkpt>
      <trkpt lat="42.864245" lon="1.062838">
        <ele>1459.4</ele>
        <time>2014-12-30T14:10:56Z</time>
      </trkpt>
      <trkpt lat="42.864345" lon="1.062822">
        <ele>1459.7</ele>
        <time>2014-12-30T14:11:07Z</time>
      </trkpt>
      <trkpt lat="42.864461" lon="1.062806">
        <ele>1460.5</ele>
        <time>2014-12-30T14:11:22Z</time>
      </trkpt>
      <trkpt lat="42.864563" lon="1.062820">
        <ele>1460.8</ele>
        <time>2014-12-30T14:11:35Z</time>
      </trkpt>
      <trkpt lat="42.864690" lon="1.062830">
        <ele>1461.4</ele>
        <time>2014-12-30T14:11:50Z</time>
      </trkpt>
      <trkpt lat="42.864800" lon="1.062847">
        <ele>1462.0</ele>
        <time>2014-12-30T14:12:03Z</time>
      </trkpt>
      <trkpt lat="42.864918" lon="1.062831">
        <ele>1462.4</ele>
        <time>2014-12-30T14:12:18Z</time>
      </trkpt>
      <trkpt lat="42.865025" lon="1.062790">
        <ele>1463.3</ele>
        <time>2014-12-30T14:12:32Z</time>
      </trkpt>
      <trkpt lat="42.865135" lon="1.062751">
        <ele>1463.9</ele>
        <time>2014-12-30T14:12:45Z</time>
      </trkpt>
      <trkpt lat="42.865248" lon="1.062709">
        <ele>1464.4</ele>
        <time>2014-12-30T14:12:58Z</time>
      </trkpt>
      <trkpt lat="42.865353" lon="1.062654">
        <ele>1465.0</ele>
        <time>2014-12-30T14:13:10Z</time>
      </trkpt>
      <trkpt lat="42.865416" lon="1.062549">
        <ele>1465.2</ele>
        <time>2014-12-30T14:13:23Z</time>
      </trkpt>
      <trkpt lat="42.865446" lon="1.062402">
        <ele>1465.6</ele>
        <time>2014-12-30T14:13:37Z</time>
      </trkpt>
      <trkpt lat="42.865452" lon="1.062239">
        <ele>1466.2</ele>
        <time>2014-12-30T14:13:50Z</time>
      </trkpt>
      <trkpt lat="42.865408" lon="1.062096">
        <ele>1466.6</ele>
        <time>2014-12-30T14:14:02Z</time>
      </trkpt>
      <trkpt lat="42.865376" lon="1.062001">
        <ele>1467.4</ele>
        <time>2014-12-30T14:15:24Z</time>
      </trkpt>
      <trkpt lat="42.865316" lon="1.061900">
        <ele>1467.8</ele>
        <time>2014-12-30T14:15:40Z</time>
      </trkpt>
      <trkpt lat="42.865255" lon="1.061775">
        <ele>1468.4</ele>
        <time>2014-12-30T14:15:53Z</time>
      </trkpt>
      <trkpt lat="42.865163" lon="1.061663">
        <ele>1468.7</ele>
        <time>2014-12-30T14:16:05Z</time>
      </trkpt>
      <trkpt lat="42.865090" lon="1.061556">
        <ele>1469.6</ele>
        <time>2014-12-30T14:16:17Z</time>
      </trkpt>
      <trkpt lat="42.865013" lon="1.061446">
        <ele>1469.7</ele>
        <time>2014-12-30T14:16:30Z</time>
      </trkpt>
      <trkpt lat="42.864932" lon="1.061347">
        <ele>1470.4</ele>
        <time>2014-12-30T14:16:42Z</time>
      </trkpt>
      <trkpt lat="42.864851" lon="1.061236">
        <ele>1470.8</ele>
        <time>2014-12-30T14:16:55Z</time>
      </trkpt>
      <trkpt lat="42.864774" lon="1.061122">
        <ele>1471.2</ele>
        <time>2014-12-30T14:17:09Z</time>
      </trkpt>
      <trkpt lat="42.864691" lon="1.061035">
        <ele>1471.9</ele>
        <time>2014-12-30T14:17:22Z</time>
      </trkpt>
      <trkpt lat="42.864594" lon="1.060949">
        <ele>1472.5</ele>
        <time>2014-12-30T14:17:36Z</time>
      </trkpt>
      <trkpt lat="42.864494" lon="1.060829">
        <ele>1473.1</ele>
        <time>2014-12-30T14:17:50Z</time>
      </trkpt>
      <trkpt lat="42.864431" lon="1.060690">
        <ele>1473.3</ele>
        <time>2014-12-30T14:18:02Z</time>
      </trkpt>
      <trkpt lat="42.864376" lon="1.060571">
        <ele>1473.7</ele>
        <time>2014-12-30T14:18:14Z</time>
      </trkpt>
      <trkpt lat="42.864340" lon="1.060416">
        <ele>1474.2</ele>
        <time>2014-12-30T14:18:28Z</time>
      </trkpt>
      <trkpt lat="42.864344" lon="1.060246">
        <ele>1475.2</ele>
        <time>2014-12-30T14:18:41Z</time>
      </trkpt>
      <trkpt lat="42.864324" lon="1.060096">
        <ele>1475.8</ele>
        <time>2014-12-30T14:18:55Z</time>
      </trkpt>
      <trkpt lat="42.864294" lon="1.059945">
        <ele>1476.5</ele>
        <time>2014-12-30T14:19:10Z</time>
      </trkpt>
      <trkpt lat="42.864277" lon="1.059827">
        <ele>1476.9</ele>
        <time>2014-12-30T14:19:35Z</time>
      </trkpt>
      <trkpt lat="42.864251" lon="1.059844">
        <ele>1476.1</ele>
        <time>2014-12-30T14:21:01Z</time>
      </trkpt>
      <trkpt lat="42.864248" lon="1.059854">
        <ele>1477.2</ele>
        <time>2014-12-30T14:23:59Z</time>
      </trkpt>
      <trkpt lat="42.864274" lon="1.059818">
        <ele>1477.8</ele>
        <time>2014-12-30T14:27:54Z</time>
      </trkpt>
      <trkpt lat="42.864216" lon="1.059722">
        <ele>1478.0</ele>
        <time>2014-12-30T14:28:25Z</time>
      </trkpt>
      <trkpt lat="42.864125" lon="1.059679">
        <ele>1478.0</ele>
        <time>2014-12-30T14:28:38Z</time>
      </trkpt>
      <trkpt lat="42.864021" lon="1.059636">
        <ele>1477.9</ele>
        <time>2014-12-30T14:28:50Z</time>
      </trkpt>
      <trkpt lat="42.863932" lon="1.059561">
        <ele>1477.1</ele>
        <time>2014-12-30T14:29:02Z</time>
      </trkpt>
      <trkpt lat="42.863838" lon="1.059461">
        <ele>1476.8</ele>
        <time>2014-12-30T14:29:15Z</time>
      </trkpt>
      <trkpt lat="42.863753" lon="1.059357">
        <ele>1476.4</ele>
        <time>2014-12-30T14:29:26Z</time>
      </trkpt>
      <trkpt lat="42.863676" lon="1.059230">
        <ele>1475.7</ele>
        <time>2014-12-30T14:29:38Z</time>
      </trkpt>
      <trkpt lat="42.863574" lon="1.059116">
        <ele>1475.3</ele>
        <time>2014-12-30T14:29:49Z</time>
      </trkpt>
      <trkpt lat="42.863468" lon="1.059023">
        <ele>1474.3</ele>
        <time>2014-12-30T14:30:01Z</time>
      </trkpt>
      <trkpt lat="42.863398" lon="1.058927">
        <ele>1473.7</ele>
        <time>2014-12-30T14:30:11Z</time>
      </trkpt>
      <trkpt lat="42.863333" lon="1.058824">
        <ele>1473.3</ele>
        <time>2014-12-30T14:30:20Z</time>
      </trkpt>
      <trkpt lat="42.863242" lon="1.058728">
        <ele>1472.8</ele>
        <time>2014-12-30T14:30:34Z</time>
      </trkpt>
      <trkpt lat="42.863150" lon="1.058634">
        <ele>1472.4</ele>
        <time>2014-12-30T14:30:46Z</time>
      </trkpt>
      <trkpt lat="42.863048" lon="1.058565">
        <ele>1471.9</ele>
        <time>2014-12-30T14:30:57Z</time>
      </trkpt>
      <trkpt lat="42.862972" lon="1.058451">
        <ele>1471.3</ele>
        <time>2014-12-30T14:31:08Z</time>
      </trkpt>
      <trkpt lat="42.862898" lon="1.058297">
        <ele>1471.0</ele>
        <time>2014-12-30T14:31:19Z</time>
      </trkpt>
      <trkpt lat="42.862819" lon="1.058167">
        <ele>1470.7</ele>
        <time>2014-12-30T14:31:31Z</time>
      </trkpt>
      <trkpt lat="42.862733" lon="1.058050">
        <ele>1470.5</ele>
        <time>2014-12-30T14:31:43Z</time>
      </trkpt>
      <trkpt lat="42.862647" lon="1.057967">
        <ele>1470.2</ele>
        <time>2014-12-30T14:31:54Z</time>
      </trkpt>
      <trkpt lat="42.862546" lon="1.057915">
        <ele>1470.1</ele>
        <time>2014-12-30T14:32:06Z</time>
      </trkpt>
      <trkpt lat="42.862463" lon="1.057847">
        <ele>1469.6</ele>
        <time>2014-12-30T14:32:17Z</time>
      </trkpt>
      <trkpt lat="42.862370" lon="1.057748">
        <ele>1469.3</ele>
        <time>2014-12-30T14:32:27Z</time>
      </trkpt>
      <trkpt lat="42.862260" lon="1.057680">
        <ele>1469.3</ele>
        <time>2014-12-30T14:32:40Z</time>
      </trkpt>
      <trkpt lat="42.862172" lon="1.057648">
        <ele>1469.1</ele>
        <time>2014-12-30T14:32:50Z</time>
      </trkpt>
      <trkpt lat="42.862071" lon="1.057617">
        <ele>1468.5</ele>
        <time>2014-12-30T14:33:02Z</time>
      </trkpt>
      <trkpt lat="42.861951" lon="1.057598">
        <ele>1468.0</ele>
        <time>2014-12-30T14:33:14Z</time>
      </trkpt>
      <trkpt lat="42.861831" lon="1.057595">
        <ele>1467.4</ele>
        <time>2014-12-30T14:33:25Z</time>
      </trkpt>
      <trkpt lat="42.861731" lon="1.057576">
        <ele>1466.9</ele>
        <time>2014-12-30T14:33:35Z</time>
      </trkpt>
      <trkpt lat="42.861607" lon="1.057551">
        <ele>1466.5</ele>
        <time>2014-12-30T14:33:46Z</time>
      </trkpt>
      <trkpt lat="42.861511" lon="1.057540">
        <ele>1466.0</ele>
        <time>2014-12-30T14:33:56Z</time>
      </trkpt>
      <trkpt lat="42.861392" lon="1.057518">
        <ele>1465.3</ele>
        <time>2014-12-30T14:34:08Z</time>
      </trkpt>
      <trkpt lat="42.861279" lon="1.057538">
        <ele>1465.2</ele>
        <time>2014-12-30T14:34:20Z</time>
      </trkpt>
      <trkpt lat="42.861202" lon="1.057557">
        <ele>1464.2</ele>
        <time>2014-12-30T14:34:42Z</time>
      </trkpt>
      <trkpt lat="42.861116" lon="1.057507">
        <ele>1464.2</ele>
        <time>2014-12-30T14:35:01Z</time>
      </trkpt>
      <trkpt lat="42.861001" lon="1.057468">
        <ele>1463.4</ele>
        <time>2014-12-30T14:35:12Z</time>
      </trkpt>
      <trkpt lat="42.860894" lon="1.057492">
        <ele>1463.4</ele>
        <time>2014-12-30T14:35:22Z</time>
      </trkpt>
      <trkpt lat="42.860793" lon="1.057524">
        <ele>1462.8</ele>
        <time>2014-12-30T14:35:32Z</time>
      </trkpt>
      <trkpt lat="42.860682" lon="1.057550">
        <ele>1462.4</ele>
        <time>2014-12-30T14:35:42Z</time>
      </trkpt>
      <trkpt lat="42.860581" lon="1.057569">
        <ele>1462.0</ele>
        <time>2014-12-30T14:35:53Z</time>
      </trkpt>
      <trkpt lat="42.860475" lon="1.057606">
        <ele>1461.6</ele>
        <time>2014-12-30T14:36:03Z</time>
      </trkpt>
      <trkpt lat="42.860370" lon="1.057630">
        <ele>1461.1</ele>
        <time>2014-12-30T14:36:14Z</time>
      </trkpt>
      <trkpt lat="42.860269" lon="1.057662">
        <ele>1460.7</ele>
        <time>2014-12-30T14:36:25Z</time>
      </trkpt>
      <trkpt lat="42.860151" lon="1.057705">
        <ele>1460.5</ele>
        <time>2014-12-30T14:36:37Z</time>
      </trkpt>
      <trkpt lat="42.860039" lon="1.057773">
        <ele>1460.4</ele>
        <time>2014-12-30T14:36:49Z</time>
      </trkpt>
      <trkpt lat="42.859941" lon="1.057818">
        <ele>1460.1</ele>
        <time>2014-12-30T14:37:00Z</time>
      </trkpt>
      <trkpt lat="42.859845" lon="1.057896">
        <ele>1459.4</ele>
        <time>2014-12-30T14:37:11Z</time>
      </trkpt>
      <trkpt lat="42.859755" lon="1.057951">
        <ele>1459.0</ele>
        <time>2014-12-30T14:37:22Z</time>
      </trkpt>
      <trkpt lat="42.859650" lon="1.058010">
        <ele>1458.3</ele>
        <time>2014-12-30T14:37:36Z</time>
      </trkpt>
      <trkpt lat="42.859529" lon="1.058051">
        <ele>1458.2</ele>
        <time>2014-12-30T14:37:48Z</time>
      </trkpt>
      <trkpt lat="42.859410" lon="1.058037">
        <ele>1458.5</ele>
        <time>2014-12-30T14:38:00Z</time>
      </trkpt>
      <trkpt lat="42.859291" lon="1.058007">
        <ele>1458.0</ele>
        <time>2014-12-30T14:38:12Z</time>
      </trkpt>
      <trkpt lat="42.859191" lon="1.057925">
        <ele>1457.9</ele>
        <time>2014-12-30T14:38:24Z</time>
      </trkpt>
      <trkpt lat="42.859092" lon="1.057974">
        <ele>1457.9</ele>
        <time>2014-12-30T14:38:36Z</time>
      </trkpt>
      <trkpt lat="42.859024" lon="1.058107">
        <ele>1457.4</ele>
        <time>2014-12-30T14:38:49Z</time>
      </trkpt>
      <trkpt lat="42.858914" lon="1.058210">
        <ele>1456.8</ele>
        <time>2014-12-30T14:39:01Z</time>
      </trkpt>
      <trkpt lat="42.858779" lon="1.058224">
        <ele>1456.1</ele>
        <time>2014-12-30T14:39:12Z</time>
      </trkpt>
      <trkpt lat="42.858660" lon="1.058229">
        <ele>1455.6</ele>
        <time>2014-12-30T14:39:25Z</time>
      </trkpt>
      <trkpt lat="42.858566" lon="1.058302">
        <ele>1455.2</ele>
        <time>2014-12-30T14:39:36Z</time>
      </trkpt>
      <trkpt lat="42.858454" lon="1.058330">
        <ele>1454.8</ele>
        <time>2014-12-30T14:39:49Z</time>
      </trkpt>
      <trkpt lat="42.858341" lon="1.058351">
        <ele>1454.7</ele>
        <time>2014-12-30T14:40:01Z</time>
      </trkpt>
      <trkpt lat="42.858244" lon="1.058400">
        <ele>1454.1</ele>
        <time>2014-12-30T14:40:12Z</time>
      </trkpt>
      <trkpt lat="42.858170" lon="1.058506">
        <ele>1454.1</ele>
        <time>2014-12-30T14:40:25Z</time>
      </trkpt>
      <trkpt lat="42.858094" lon="1.058650">
        <ele>1453.9</ele>
        <time>2014-12-30T14:40:35Z</time>
      </trkpt>
      <trkpt lat="42.858028" lon="1.058741">
        <ele>1453.8</ele>
        <time>2014-12-30T14:40:46Z</time>
      </trkpt>
      <trkpt lat="42.857944" lon="1.058842">
        <ele>1452.5</ele>
        <time>2014-12-30T14:40:59Z</time>
      </trkpt>
      <trkpt lat="42.857844" lon="1.058967">
        <ele>1451.9</ele>
        <time>2014-12-30T14:41:11Z</time>
      </trkpt>
      <trkpt lat="42.857737" lon="1.059017">
        <ele>1451.0</ele>
        <time>2014-12-30T14:41:25Z</time>
      </trkpt>
      <trkpt lat="42.857631" lon="1.059098">
        <ele>1450.5</ele>
        <time>2014-12-30T14:41:37Z</time>
      </trkpt>
      <trkpt lat="42.857539" lon="1.059223">
        <ele>1450.3</ele>
        <time>2014-12-30T14:41:49Z</time>
      </trkpt>
      <trkpt lat="42.857458" lon="1.059312">
        <ele>1450.0</ele>
        <time>2014-12-30T14:42:03Z</time>
      </trkpt>
      <trkpt lat="42.857390" lon="1.059441">
        <ele>1449.5</ele>
        <time>2014-12-30T14:42:15Z</time>
      </trkpt>
      <trkpt lat="42.857310" lon="1.059555">
        <ele>1448.8</ele>
        <time>2014-12-30T14:42:28Z</time>
      </trkpt>
      <trkpt lat="42.857221" lon="1.059640">
        <ele>1448.6</ele>
        <time>2014-12-30T14:42:39Z</time>
      </trkpt>
      <trkpt lat="42.857133" lon="1.059720">
        <ele>1448.1</ele>
        <time>2014-12-30T14:42:51Z</time>
      </trkpt>
      <trkpt lat="42.857028" lon="1.059817">
        <ele>1447.7</ele>
        <time>2014-12-30T14:43:04Z</time>
      </trkpt>
      <trkpt lat="42.856930" lon="1.059900">
        <ele>1447.0</ele>
        <time>2014-12-30T14:43:16Z</time>
      </trkpt>
      <trkpt lat="42.856833" lon="1.059989">
        <ele>1447.2</ele>
        <time>2014-12-30T14:43:27Z</time>
      </trkpt>
      <trkpt lat="42.856762" lon="1.060076">
        <ele>1446.9</ele>
        <time>2014-12-30T14:43:41Z</time>
      </trkpt>
      <trkpt lat="42.856697" lon="1.060201">
        <ele>1446.9</ele>
        <time>2014-12-30T14:43:54Z</time>
      </trkpt>
      <trkpt lat="42.856621" lon="1.060288">
        <ele>1446.8</ele>
        <time>2014-12-30T14:44:07Z</time>
      </trkpt>
      <trkpt lat="42.856538" lon="1.060411">
        <ele>1446.6</ele>
        <time>2014-12-30T14:44:20Z</time>
      </trkpt>
      <trkpt lat="42.856453" lon="1.060478">
        <ele>1446.2</ele>
        <time>2014-12-30T14:44:30Z</time>
      </trkpt>
      <trkpt lat="42.856371" lon="1.060547">
        <ele>1445.8</ele>
        <time>2014-12-30T14:44:41Z</time>
      </trkpt>
      <trkpt lat="42.856268" lon="1.060627">
        <ele>1445.4</ele>
        <time>2014-12-30T14:44:53Z</time>
      </trkpt>
      <trkpt lat="42.856186" lon="1.060725">
        <ele>1445.1</ele>
        <time>2014-12-30T14:45:06Z</time>
      </trkpt>
      <trkpt lat="42.856093" lon="1.060822">
        <ele>1444.8</ele>
        <time>2014-12-30T14:45:18Z</time>
      </trkpt>
      <trkpt lat="42.855986" lon="1.060923">
        <ele>1444.3</ele>
        <time>2014-12-30T14:45:30Z</time>
      </trkpt>
      <trkpt lat="42.855884" lon="1.060985">
        <ele>1444.4</ele>
        <time>2014-12-30T14:45:42Z</time>
      </trkpt>
      <trkpt lat="42.855811" lon="1.061084">
        <ele>1444.2</ele>
        <time>2014-12-30T14:45:53Z</time>
      </trkpt>
      <trkpt lat="42.855732" lon="1.061169">
        <ele>1443.9</ele>
        <time>2014-12-30T14:46:04Z</time>
      </trkpt>
      <trkpt lat="42.855658" lon="1.061258">
        <ele>1443.8</ele>
        <time>2014-12-30T14:46:15Z</time>
      </trkpt>
      <trkpt lat="42.855584" lon="1.061292">
        <ele>1443.4</ele>
        <time>2014-12-30T14:46:38Z</time>
      </trkpt>
      <trkpt lat="42.855519" lon="1.061369">
        <ele>1443.2</ele>
        <time>2014-12-30T14:46:47Z</time>
      </trkpt>
      <trkpt lat="42.855448" lon="1.061460">
        <ele>1442.8</ele>
        <time>2014-12-30T14:46:57Z</time>
      </trkpt>
      <trkpt lat="42.855368" lon="1.061558">
        <ele>1442.7</ele>
        <time>2014-12-30T14:47:07Z</time>
      </trkpt>
      <trkpt lat="42.855304" lon="1.061643">
        <ele>1442.5</ele>
        <time>2014-12-30T14:47:17Z</time>
      </trkpt>
      <trkpt lat="42.855225" lon="1.061750">
        <ele>1441.9</ele>
        <time>2014-12-30T14:47:29Z</time>
      </trkpt>
      <trkpt lat="42.855132" lon="1.061828">
        <ele>1441.6</ele>
        <time>2014-12-30T14:47:41Z</time>
      </trkpt>
      <trkpt lat="42.855053" lon="1.061921">
        <ele>1441.3</ele>
        <time>2014-12-30T14:47:53Z</time>
      </trkpt>
      <trkpt lat="42.854956" lon="1.061982">
        <ele>1441.2</ele>
        <time>2014-12-30T14:48:04Z</time>
      </trkpt>
      <trkpt lat="42.854878" lon="1.062064">
        <ele>1441.0</ele>
        <time>2014-12-30T14:48:14Z</time>
      </trkpt>
      <trkpt lat="42.854793" lon="1.062150">
        <ele>1440.7</ele>
        <time>2014-12-30T14:48:26Z</time>
      </trkpt>
      <trkpt lat="42.854714" lon="1.062237">
        <ele>1440.3</ele>
        <time>2014-12-30T14:48:38Z</time>
      </trkpt>
      <trkpt lat="42.854620" lon="1.062311">
        <ele>1439.8</ele>
        <time>2014-12-30T14:48:49Z</time>
      </trkpt>
      <trkpt lat="42.854533" lon="1.062400">
        <ele>1439.6</ele>
        <time>2014-12-30T14:49:01Z</time>
      </trkpt>
      <trkpt lat="42.854448" lon="1.062508">
        <ele>1439.3</ele>
        <time>2014-12-30T14:49:13Z</time>
      </trkpt>
      <trkpt lat="42.854381" lon="1.062594">
        <ele>1439.1</ele>
        <time>2014-12-30T14:49:27Z</time>
      </trkpt>
      <trkpt lat="42.854321" lon="1.062713">
        <ele>1438.7</ele>
        <time>2014-12-30T14:49:42Z</time>
      </trkpt>
      <trkpt lat="42.854240" lon="1.062823">
        <ele>1438.7</ele>
        <time>2014-12-30T14:49:54Z</time>
      </trkpt>
      <trkpt lat="42.854147" lon="1.062916">
        <ele>1438.7</ele>
        <time>2014-12-30T14:50:04Z</time>
      </trkpt>
      <trkpt lat="42.854047" lon="1.062977">
        <ele>1438.2</ele>
        <time>2014-12-30T14:50:16Z</time>
      </trkpt>
      <trkpt lat="42.853947" lon="1.063034">
        <ele>1437.9</ele>
        <time>2014-12-30T14:50:27Z</time>
      </trkpt>
      <trkpt lat="42.853850" lon="1.063092">
        <ele>1437.6</ele>
        <time>2014-12-30T14:50:37Z</time>
      </trkpt>
      <trkpt lat="42.853757" lon="1.063124">
        <ele>1437.6</ele>
        <time>2014-12-30T14:50:49Z</time>
      </trkpt>
      <trkpt lat="42.853666" lon="1.063164">
        <ele>1437.1</ele>
        <time>2014-12-30T14:50:59Z</time>
      </trkpt>
      <trkpt lat="42.853577" lon="1.063175">
        <ele>1436.8</ele>
        <time>2014-12-30T14:51:09Z</time>
      </trkpt>
      <trkpt lat="42.853479" lon="1.063162">
        <ele>1436.7</ele>
        <time>2014-12-30T14:51:21Z</time>
      </trkpt>
      <trkpt lat="42.853378" lon="1.063122">
        <ele>1436.2</ele>
        <time>2014-12-30T14:51:34Z</time>
      </trkpt>
      <trkpt lat="42.853278" lon="1.063099">
        <ele>1436.0</ele>
        <time>2014-12-30T14:51:45Z</time>
      </trkpt>
      <trkpt lat="42.853183" lon="1.063088">
        <ele>1436.1</ele>
        <time>2014-12-30T14:51:58Z</time>
      </trkpt>
      <trkpt lat="42.853086" lon="1.063075">
        <ele>1435.6</ele>
        <time>2014-12-30T14:52:12Z</time>
      </trkpt>
      <trkpt lat="42.852981" lon="1.063100">
        <ele>1435.3</ele>
        <time>2014-12-30T14:52:26Z</time>
      </trkpt>
      <trkpt lat="42.852886" lon="1.063139">
        <ele>1435.3</ele>
        <time>2014-12-30T14:52:38Z</time>
      </trkpt>
      <trkpt lat="42.852795" lon="1.063215">
        <ele>1435.6</ele>
        <time>2014-12-30T14:52:51Z</time>
      </trkpt>
      <trkpt lat="42.852706" lon="1.063292">
        <ele>1435.8</ele>
        <time>2014-12-30T14:53:06Z</time>
      </trkpt>
      <trkpt lat="42.852618" lon="1.063341">
        <ele>1435.4</ele>
        <time>2014-12-30T14:53:33Z</time>
      </trkpt>
      <trkpt lat="42.852525" lon="1.063400">
        <ele>1435.5</ele>
        <time>2014-12-30T14:53:45Z</time>
      </trkpt>
      <trkpt lat="42.852425" lon="1.063424">
        <ele>1435.1</ele>
        <time>2014-12-30T14:53:59Z</time>
      </trkpt>
      <trkpt lat="42.852322" lon="1.063406">
        <ele>1435.2</ele>
        <time>2014-12-30T14:54:18Z</time>
      </trkpt>
      <trkpt lat="42.852244" lon="1.063474">
        <ele>1436.3</ele>
        <time>2014-12-30T14:54:35Z</time>
      </trkpt>
      <trkpt lat="42.852216" lon="1.063506">
        <ele>1438.3</ele>
        <time>2014-12-30T14:55:08Z</time>
      </trkpt>
      <trkpt lat="42.852196" lon="1.063451">
        <ele>1437.8</ele>
        <time>2014-12-30T14:55:40Z</time>
      </trkpt>
      <trkpt lat="42.852208" lon="1.063470">
        <ele>1437.8</ele>
        <time>2014-12-30T14:56:13Z</time>
      </trkpt>
      <trkpt lat="42.852184" lon="1.063503">
        <ele>1437.8</ele>
        <time>2014-12-30T14:56:46Z</time>
      </trkpt>
    </trkseg>
  </trk>
</gpx>

